Time;durP1;ratioP1;P1;durP2;ratioP2;P2;SDS_P1;SDS_P2;PMS_P1;PMS_P2;Temp;Humidity;BMP_temperature;BMP_pressure;BME280_temperature;BME280_humidity;BME280_pressure;Samples;Min_cycle;Max_cycle;Signal;HPM_P1;HPM_P2
2023/06/27 00:01:39;;;;;;;2.10;1.90;;;14.80;99.90;;;;;;5053644;28;20426;-66
2023/06/27 00:04:06;;;;;;;4.03;2.53;;;14.70;99.90;;;;;;5053724;28;20537;-65
2023/06/27 00:06:32;;;;;;;3.10;2.67;;;14.70;99.90;;;;;;5052603;28;20049;-66
2023/06/27 00:08:58;;;;;;;3.30;2.78;;;14.70;99.90;;;;;;5053970;28;20052;-65
2023/06/27 00:11:24;;;;;;;3.47;2.30;;;14.70;99.90;;;;;;5053607;28;20049;-65
2023/06/27 00:13:49;;;;;;;3.38;3.08;;;14.70;99.90;;;;;;5019528;28;20045;-66
2023/06/27 00:16:17;;;;;;;3.25;1.73;;;14.60;99.90;;;;;;5053779;28;20041;-66
2023/06/27 00:18:47;;;;;;;3.53;2.13;;;14.70;99.90;;;;;;5053572;28;20530;-67
2023/06/27 00:21:17;;;;;;;5.53;2.63;;;14.60;99.90;;;;;;5053758;28;20048;-66
2023/06/27 00:23:43;;;;;;;4.30;2.30;;;14.60;99.90;;;;;;5053093;28;20033;-66
2023/06/27 00:26:10;;;;;;;6.22;3.58;;;14.60;99.90;;;;;;5053266;28;20045;-66
2023/06/27 00:28:35;;;;;;;6.07;3.10;;;14.60;99.90;;;;;;5053123;28;20106;-65
2023/06/27 00:31:02;;;;;;;5.45;2.60;;;14.60;99.90;;;;;;5052849;28;20052;-66
2023/06/27 00:33:28;;;;;;;5.82;2.83;;;14.50;99.90;;;;;;5051142;28;20417;-65
2023/06/27 00:35:53;;;;;;;3.55;2.67;;;14.50;99.90;;;;;;5052363;28;20056;-65
2023/06/27 00:38:19;;;;;;;3.95;2.65;;;14.50;99.90;;;;;;5051568;28;20119;-67
2023/06/27 00:40:45;;;;;;;4.80;2.65;;;14.50;99.90;;;;;;5018984;28;20060;-66
2023/06/27 00:43:11;;;;;;;5.82;3.17;;;14.50;99.90;;;;;;5052807;28;20485;-64
2023/06/27 00:45:36;;;;;;;3.80;2.65;;;14.50;99.90;;;;;;5053149;28;20132;-64
2023/06/27 00:48:03;;;;;;;6.38;2.67;;;14.40;99.90;;;;;;5052841;28;20045;-64
2023/06/27 00:50:30;;;;;;;3.70;3.05;;;14.40;99.90;;;;;;5053024;28;20057;-65
2023/06/27 00:52:58;;;;;;;5.40;2.67;;;14.40;99.90;;;;;;5052911;28;20056;-64
2023/06/27 00:55:24;;;;;;;7.93;2.85;;;14.30;99.90;;;;;;5051233;28;20045;-68
2023/06/27 00:57:50;;;;;;;8.57;3.00;;;14.30;99.90;;;;;;5052986;28;20056;-65
2023/06/27 01:00:16;;;;;;;4.80;3.10;;;14.30;99.90;;;;;;5035653;28;20052;-65
2023/06/27 01:02:45;;;;;;;4.00;2.50;;;14.30;99.90;;;;;;5052932;28;20056;-65
2023/06/27 01:05:12;;;;;;;6.00;2.85;;;14.30;99.90;;;;;;5034945;28;20048;-65
2023/06/27 01:07:58;;;;;;;3.17;2.88;;;14.30;99.90;;;;;;5051151;28;20052;-65
2023/06/27 01:10:34;;;;;;;5.63;3.00;;;14.30;99.90;;;;;;5051033;28;20048;-66
2023/06/27 01:13:10;;;;;;;3.42;2.58;;;14.20;99.90;;;;;;5052928;28;20049;-66
2023/06/27 01:15:37;;;;;;;6.38;3.22;;;14.20;99.90;;;;;;5052894;28;20075;-65
2023/06/27 01:18:05;;;;;;;3.97;2.97;;;14.20;99.90;;;;;;5052310;28;20048;-67
2023/06/27 01:20:32;;;;;;;3.72;2.40;;;14.20;99.90;;;;;;5052348;28;20052;-65
2023/06/27 01:23:16;;;;;;;2.47;2.13;;;14.20;99.90;;;;;;5052530;28;20055;-65
2023/06/27 01:25:42;;;;;;;3.40;3.10;;;14.20;99.90;;;;;;5052373;28;20132;-65
2023/06/27 01:28:13;;;;;;;4.10;2.85;;;14.10;99.90;;;;;;5052430;28;20041;-65
2023/06/27 01:30:40;;;;;;;4.18;3.75;;;14.10;99.90;;;;;;5052160;28;20051;-65
2023/06/27 01:33:27;;;;;;;4.72;2.75;;;14.10;99.90;;;;;;5052102;28;20071;-65
2023/06/27 01:36:02;;;;;;;4.53;3.08;;;14.10;99.90;;;;;;5051052;28;20061;-65
2023/06/27 01:38:35;;;;;;;4.80;2.90;;;14.10;99.90;;;;;;5052094;28;20053;-65
2023/06/27 01:41:05;;;;;;;2.63;2.20;;;14.10;99.90;;;;;;5051947;28;20088;-65
2023/06/27 01:43:31;;;;;;;5.85;2.92;;;14.00;99.90;;;;;;5051946;28;20046;-65
2023/06/27 01:45:57;;;;;;;5.45;3.03;;;14.00;99.90;;;;;;5052308;28;20044;-65
2023/06/27 01:48:24;;;;;;;6.40;3.42;;;14.00;99.90;;;;;;5052269;28;20103;-65
2023/06/27 01:50:53;;;;;;;4.05;3.38;;;14.00;99.90;;;;;;5050502;28;20037;-65
2023/06/27 01:53:19;;;;;;;4.45;3.17;;;14.00;99.90;;;;;;5052002;28;20124;-66
2023/06/27 01:55:45;;;;;;;6.28;3.40;;;14.00;99.90;;;;;;5052585;28;20165;-65
2023/06/27 01:58:12;;;;;;;4.40;3.00;;;13.90;99.90;;;;;;5052203;28;20144;-64
2023/06/27 02:00:37;;;;;;;4.22;2.88;;;13.90;99.90;;;;;;5052090;28;20067;-64
2023/06/27 02:03:03;;;;;;;5.93;3.42;;;13.90;99.90;;;;;;5052820;28;20389;-64
2023/06/27 02:05:29;;;;;;;5.40;2.95;;;13.90;99.90;;;;;;5052071;28;20045;-65
2023/06/27 02:07:54;;;;;;;3.58;2.80;;;13.80;99.90;;;;;;5052490;28;20557;-66
2023/06/27 02:10:21;;;;;;;3.33;2.80;;;13.80;99.90;;;;;;5034265;28;20067;-65
2023/06/27 02:12:46;;;;;;;3.83;2.97;;;13.70;99.90;;;;;;5052136;28;20045;-64
2023/06/27 02:15:12;;;;;;;4.75;3.13;;;13.80;99.90;;;;;;5050614;28;20045;-65
2023/06/27 02:17:38;;;;;;;4.18;2.67;;;13.70;99.90;;;;;;5052360;28;20045;-64
2023/06/27 02:20:04;;;;;;;5.15;3.30;;;13.70;99.90;;;;;;5051917;28;20049;-65
2023/06/27 02:22:30;;;;;;;4.78;3.13;;;13.60;99.90;;;;;;5052082;28;20040;-66
2023/06/27 02:24:56;;;;;;;3.72;3.10;;;13.60;99.90;;;;;;5052223;28;20416;-65
2023/06/27 02:27:21;;;;;;;4.60;3.42;;;13.50;99.90;;;;;;5051948;28;20179;-64
2023/06/27 02:29:47;;;;;;;6.35;3.00;;;13.50;99.90;;;;;;5052010;28;20044;-64
2023/06/27 02:32:13;;;;;;;4.60;3.35;;;13.50;99.90;;;;;;5052269;28;20548;-65
2023/06/27 02:34:38;;;;;;;4.88;3.08;;;13.50;99.90;;;;;;5051577;28;20471;-65
2023/06/27 02:37:04;;;;;;;3.45;2.78;;;13.40;99.90;;;;;;5052131;28;20127;-66
2023/06/27 02:39:30;;;;;;;6.57;2.85;;;13.40;99.90;;;;;;5051545;28;20437;-65
2023/06/27 02:41:55;;;;;;;4.20;3.13;;;13.40;99.90;;;;;;5052421;28;20099;-65
2023/06/27 02:44:21;;;;;;;3.88;3.42;;;13.40;99.90;;;;;;5050594;28;20408;-64
2023/06/27 02:46:47;;;;;;;4.25;3.00;;;13.40;99.90;;;;;;5050968;28;20155;-65
2023/06/27 02:49:12;;;;;;;4.32;3.17;;;13.40;99.90;;;;;;5051668;28;20060;-65
2023/06/27 02:51:38;;;;;;;3.78;2.97;;;13.40;99.90;;;;;;5051513;28;20045;-64
2023/06/27 02:54:04;;;;;;;4.00;2.97;;;13.40;99.90;;;;;;5051492;28;20060;-64
2023/06/27 02:56:29;;;;;;;6.93;3.45;;;13.30;99.90;;;;;;5051642;28;20120;-64
2023/06/27 02:58:55;;;;;;;2.97;2.40;;;13.30;99.90;;;;;;5051429;28;20045;-65
2023/06/27 03:01:21;;;;;;;4.78;4.15;;;13.20;99.90;;;;;;5052772;28;20557;-64
2023/06/27 03:03:46;;;;;;;5.53;3.28;;;13.20;99.90;;;;;;5054078;28;20041;-64
2023/06/27 03:06:12;;;;;;;3.08;2.80;;;13.20;99.90;;;;;;5055365;28;20049;-65
2023/06/27 03:08:38;;;;;;;5.22;3.22;;;13.20;99.90;;;;;;5055150;28;20462;-65
2023/06/27 03:11:04;;;;;;;3.42;3.10;;;13.20;99.90;;;;;;5055436;28;20087;-64
2023/06/27 03:13:30;;;;;;;4.35;2.97;;;13.20;99.90;;;;;;5054359;28;20056;-64
2023/06/27 03:15:55;;;;;;;3.95;3.33;;;13.20;99.90;;;;;;5054948;28;20045;-65
2023/06/27 03:18:21;;;;;;;4.97;3.47;;;13.20;99.90;;;;;;5054746;28;20045;-66
2023/06/27 03:20:47;;;;;;;5.40;3.40;;;13.20;99.90;;;;;;5054883;28;20060;-64
2023/06/27 03:23:12;;;;;;;4.30;3.30;;;13.20;99.90;;;;;;5054694;28;20404;-66
2023/06/27 03:25:38;;;;;;;4.03;3.13;;;13.30;99.90;;;;;;5054780;28;20051;-64
2023/06/27 03:28:04;;;;;;;4.57;2.95;;;13.30;99.90;;;;;;5053571;28;20079;-65
2023/06/27 03:30:29;;;;;;;5.32;3.58;;;13.30;99.90;;;;;;5054650;28;20041;-65
2023/06/27 03:32:55;;;;;;;6.63;3.35;;;13.30;99.90;;;;;;5054584;28;20060;-65
2023/06/27 03:35:21;;;;;;;3.83;3.40;;;13.20;99.90;;;;;;5054658;28;20140;-66
2023/06/27 03:37:46;;;;;;;4.80;3.40;;;13.30;99.90;;;;;;5054484;28;20470;-66
2023/06/27 03:40:12;;;;;;;4.13;3.42;;;13.20;99.90;;;;;;5054062;28;20053;-65
2023/06/27 03:42:38;;;;;;;3.67;3.38;;;13.20;99.90;;;;;;5054826;28;20045;-64
2023/06/27 03:45:04;;;;;;;4.07;3.67;;;13.20;99.90;;;;;;5054396;28;20147;-65
2023/06/27 03:47:30;;;;;;;5.15;3.88;;;13.20;99.90;;;;;;5054780;28;20048;-65
2023/06/27 03:49:56;;;;;;;5.75;3.95;;;13.30;99.90;;;;;;5054560;28;20052;-66
2023/06/27 03:52:21;;;;;;;5.28;3.97;;;13.30;99.90;;;;;;5054459;28;20544;-65
2023/06/27 03:54:47;;;;;;;7.32;4.45;;;13.30;99.90;;;;;;5054230;28;20041;-65
2023/06/27 03:57:13;;;;;;;6.22;4.07;;;13.30;99.90;;;;;;5054706;28;20116;-65
2023/06/27 03:59:38;;;;;;;3.83;3.42;;;13.30;99.90;;;;;;5052985;28;20053;-65
2023/06/27 04:02:04;;;;;;;6.07;3.75;;;13.40;99.90;;;;;;5052931;28;20488;-65
2023/06/27 04:04:30;;;;;;;6.05;4.07;;;13.40;99.90;;;;;;5053899;28;20079;-65
2023/06/27 04:06:55;;;;;;;6.45;4.30;;;13.40;99.90;;;;;;5053973;28;20124;-67
2023/06/27 04:09:21;;;;;;;5.82;3.92;;;13.50;99.90;;;;;;5054154;28;20056;-64
2023/06/27 04:11:46;;;;;;;10.80;4.65;;;13.50;99.90;;;;;;5053652;28;20045;-65
2023/06/27 04:14:17;;;;;;;5.90;4.55;;;13.60;99.90;;;;;;5053851;28;20435;-65
2023/06/27 04:16:43;;;;;;;6.38;3.97;;;13.60;99.90;;;;;;5054054;28;20049;-65
2023/06/27 04:19:09;;;;;;;9.27;4.32;;;13.70;99.90;;;;;;5053651;28;20059;-64
2023/06/27 04:21:35;;;;;;;4.95;3.63;;;13.70;99.90;;;;;;5053692;28;20041;-64
2023/06/27 04:24:00;;;;;;;6.18;4.20;;;13.80;99.90;;;;;;5054259;28;20066;-64
2023/06/27 04:26:26;;;;;;;4.82;3.90;;;13.80;99.90;;;;;;5053467;28;20446;-65
2023/06/27 04:28:52;;;;;;;6.82;4.07;;;13.90;99.90;;;;;;5053876;28;20063;-64
2023/06/27 04:31:18;;;;;;;6.55;3.58;;;14.00;99.90;;;;;;5053412;28;20446;-65
2023/06/27 04:33:43;;;;;;;6.00;3.60;;;14.00;99.90;;;;;;5053437;28;20111;-65
2023/06/27 04:36:10;;;;;;;6.00;3.67;;;14.10;99.90;;;;;;5052165;28;20080;-64
2023/06/27 04:38:39;;;;;;;4.72;3.90;;;14.20;99.90;;;;;;5053413;28;20057;-64
2023/06/27 04:41:06;;;;;;;6.32;4.07;;;14.30;99.90;;;;;;5052237;28;20123;-65
2023/06/27 04:43:32;;;;;;;6.25;4.20;;;14.30;99.90;;;;;;5052935;28;20489;-65
2023/06/27 04:46:01;;;;;;;5.43;3.05;;;14.40;99.90;;;;;;5053460;28;20055;-65
2023/06/27 04:48:27;;;;;;;3.83;3.42;;;14.50;99.90;;;;;;5052324;28;20045;-65
2023/06/27 04:50:53;;;;;;;4.93;3.78;;;14.50;99.90;;;;;;5052151;28;20041;-66
2023/06/27 04:53:23;;;;;;;6.18;3.78;;;14.60;99.90;;;;;;5052327;28;20147;-64
2023/06/27 04:55:50;;;;;;;5.88;4.50;;;14.70;99.90;;;;;;5052858;28;20052;-65
2023/06/27 04:58:16;;;;;;;6.18;3.83;;;14.80;99.90;;;;;;5052901;28;20052;-65
2023/06/27 05:00:44;;;;;;;5.55;3.38;;;14.90;99.90;;;;;;5052739;28;20037;-65
2023/06/27 05:03:10;;;;;;;4.47;3.35;;;15.00;99.90;;;;;;5051385;28;20098;-65
2023/06/27 05:05:36;;;;;;;6.35;3.22;;;15.00;99.90;;;;;;5035083;28;20133;-65
2023/06/27 05:08:05;;;;;;;4.90;3.75;;;15.20;99.90;;;;;;5052621;28;20068;-67
2023/06/27 05:10:31;;;;;;;5.32;3.80;;;15.20;99.90;;;;;;5052567;28;20147;-66
2023/06/27 05:12:57;;;;;;;9.02;3.75;;;15.30;99.90;;;;;;5052646;28;20041;-66
2023/06/27 05:15:23;;;;;;;6.40;3.17;;;15.40;99.90;;;;;;5052859;28;20090;-66
2023/06/27 05:17:52;;;;;;;5.78;3.47;;;15.50;99.90;;;;;;5053149;28;20048;-66
2023/06/27 05:20:18;;;;;;;4.88;3.67;;;15.60;99.90;;;;;;5052735;28;20182;-65
2023/06/27 05:22:44;;;;;;;6.57;3.28;;;15.70;99.90;;;;;;5052581;28;20055;-66
2023/06/27 05:25:10;;;;;;;5.22;3.22;;;15.80;99.90;;;;;;5051998;28;20140;-66
2023/06/27 05:27:36;;;;;;;5.68;3.83;;;15.90;99.90;;;;;;5051232;28;20049;-65
2023/06/27 05:30:02;;;;;;;3.40;2.88;;;16.00;99.90;;;;;;5052358;28;20052;-66
2023/06/27 05:32:28;;;;;;;4.15;3.38;;;16.10;99.90;;;;;;5052154;28;20548;-64
2023/06/27 05:34:54;;;;;;;4.40;3.30;;;16.20;99.90;;;;;;5052226;28;20483;-65
2023/06/27 05:37:20;;;;;;;5.55;2.95;;;16.40;99.90;;;;;;5051386;28;20057;-66
2023/06/27 05:39:45;;;;;;;6.43;3.55;;;16.40;99.90;;;;;;5052768;28;20067;-66
2023/06/27 05:42:11;;;;;;;8.40;3.65;;;16.50;99.90;;;;;;5052082;28;20113;-65
2023/06/27 05:44:37;;;;;;;6.97;3.55;;;16.70;99.90;;;;;;5051941;28;20043;-65
2023/06/27 05:47:03;;;;;;;6.47;2.95;;;16.80;99.90;;;;;;5050703;28;20076;-65
2023/06/27 05:49:29;;;;;;;5.20;3.10;;;16.90;99.90;;;;;;5051891;28;20052;-65
2023/06/27 05:51:55;;;;;;;4.75;2.63;;;17.00;99.90;;;;;;5052194;28;20045;-66
2023/06/27 05:54:20;;;;;;;4.00;2.60;;;17.10;99.90;;;;;;5052035;28;20124;-66
2023/06/27 05:56:46;;;;;;;6.50;2.65;;;17.20;99.90;;;;;;5052483;28;20124;-67
2023/06/27 05:59:12;;;;;;;4.88;2.45;;;17.30;99.90;;;;;;5052146;28;20045;-65
2023/06/27 06:01:37;;;;;;;6.05;2.65;;;17.50;99.90;;;;;;5052116;28;20045;-66
2023/06/27 06:04:04;;;;;;;6.13;2.60;;;17.60;99.90;;;;;;5051601;28;20052;-66
2023/06/27 06:06:33;;;;;;;5.80;2.63;;;17.70;99.90;;;;;;5051766;28;20091;-67
2023/06/27 06:09:00;;;;;;;4.85;2.70;;;17.80;99.90;;;;;;5051760;28;20051;-66
2023/06/27 06:11:26;;;;;;;7.18;2.67;;;17.90;99.90;;;;;;5052212;28;20128;-66
2023/06/27 06:13:52;;;;;;;4.20;2.60;;;18.10;99.90;;;;;;5051856;28;20049;-66
2023/06/27 06:16:18;;;;;;;3.92;2.10;;;18.30;99.90;;;;;;5051845;28;20048;-66
2023/06/27 06:18:43;;;;;;;4.57;2.58;;;18.50;99.90;;;;;;5050588;28;20094;-66
2023/06/27 06:21:12;;;;;;;3.88;1.80;;;18.90;99.90;;;;;;5051347;28;20052;-65
2023/06/27 06:23:38;;;;;;;4.07;1.70;;;19.90;99.90;;;;;;5050616;28;20115;-65
2023/06/27 06:26:04;;;;;;;4.00;1.88;;;21.10;99.90;;;;;;5051795;28;20052;-65
2023/06/27 06:28:29;;;;;;;5.10;2.00;;;21.90;99.90;;;;;;5052079;28;20529;-65
2023/06/27 06:30:55;;;;;;;5.35;2.05;;;22.70;98.90;;;;;;5052410;28;20041;-65
2023/06/27 06:33:22;;;;;;;4.40;1.70;;;23.20;97.30;;;;;;5051468;28;20451;-65
2023/06/27 06:35:48;;;;;;;4.55;1.58;;;23.70;95.70;;;;;;5051722;28;20057;-66
2023/06/27 06:38:14;;;;;;;4.03;1.40;;;24.10;94.90;;;;;;5055343;28;20115;-66
2023/06/27 06:40:39;;;;;;;4.30;1.55;;;24.50;93.80;;;;;;5054109;28;20479;-65
2023/06/27 06:43:05;;;;;;;1.77;1.65;;;24.70;93.50;;;;;;5037666;28;20059;-66
2023/06/27 06:45:31;;;;;;;2.40;1.38;;;25.40;93.40;;;;;;5055353;28;20504;-67
2023/06/27 06:47:59;;;;;;;2.65;1.30;;;25.00;92.30;;;;;;5038140;28;20461;-66
2023/06/27 06:50:24;;;;;;;6.38;1.70;;;26.10;92.60;;;;;;5055736;28;20064;-66
2023/06/27 06:52:50;;;;;;;4.13;1.50;;;26.10;92.00;;;;;;5053912;28;20048;-67
2023/06/27 06:55:16;;;;;;;5.90;1.42;;;26.00;90.80;;;;;;5055422;28;20048;-66
2023/06/27 06:57:42;;;;;;;5.50;1.35;;;26.30;90.90;;;;;;5053970;28;20502;-66
2023/06/27 07:00:08;;;;;;;4.25;1.30;;;26.10;90.40;;;;;;5055192;28;20045;-66
2023/06/27 07:02:34;;;;;;;3.78;1.40;;;26.10;90.20;;;;;;5054347;28;20122;-68
2023/06/27 07:05:00;;;;;;;3.95;1.42;;;26.50;90.00;;;;;;5054994;28;20442;-66
2023/06/27 07:07:25;;;;;;;3.92;2.95;;;26.60;87.70;;;;;;5054858;28;20083;-67
2023/06/27 07:09:51;;;;;;;5.18;2.83;;;26.90;87.10;;;;;;5054689;28;20049;-66
2023/06/27 07:12:17;;;;;;;4.97;1.80;;;26.90;88.60;;;;;;5055059;28;20132;-66
2023/06/27 07:14:43;;;;;;;3.15;2.05;;;26.70;85.80;;;;;;5053882;28;20057;-67
2023/06/27 07:17:09;;;;;;;1.90;1.67;;;27.10;85.70;;;;;;5054780;28;20056;-66
2023/06/27 07:19:34;;;;;;;6.13;1.50;;;25.80;84.10;;;;;;5054837;28;20040;-67
2023/06/27 07:22:00;;;;;;;2.42;1.17;;;26.60;86.80;;;;;;5054699;28;20132;-67
2023/06/27 07:24:26;;;;;;;3.30;1.23;;;;;;;;;;5054687;28;20048;-67
2023/06/27 07:26:52;;;;;;;1.98;1.02;;;;;;;;;;5054662;28;20057;-66
2023/06/27 07:29:18;;;;;;;4.53;1.50;;;26.00;84.40;;;;;;5054760;28;20062;-66
2023/06/27 07:31:44;;;;;;;2.60;1.10;;;;;;;;;;5054473;28;20071;-66
2023/06/27 07:34:10;;;;;;;2.13;1.20;;;25.60;85.40;;;;;;5054417;28;20060;-67
2023/06/27 07:36:36;;;;;;;5.22;1.48;;;25.30;85.70;;;;;;5054043;28;20591;-67
2023/06/27 07:39:01;;;;;;;4.82;1.90;;;25.20;85.80;;;;;;5053499;28;20084;-66
2023/06/27 07:41:28;;;;;;;2.50;1.42;;;25.30;86.00;;;;;;5054478;28;20488;-65
2023/06/27 07:43:54;;;;;;;1.52;1.20;;;25.10;84.20;;;;;;5054785;28;20041;-65
2023/06/27 07:46:20;;;;;;;2.83;1.30;;;25.20;85.30;;;;;;5054276;28;20211;-66
2023/06/27 07:48:46;;;;;;;3.03;1.20;;;24.70;83.20;;;;;;5053477;28;20136;-67
2023/06/27 07:51:11;;;;;;;7.25;1.42;;;24.90;83.90;;;;;;5054342;28;20121;-66
2023/06/27 07:53:37;;;;;;;2.53;0.90;;;25.40;83.90;;;;;;5054570;28;20107;-66
2023/06/27 07:56:03;;;;;;;1.67;1.00;;;25.70;83.40;;;;;;5052926;28;20048;-67
2023/06/27 07:58:28;;;;;;;2.60;1.10;;;26.00;82.70;;;;;;5052734;28;20045;-67
2023/06/27 08:00:54;;;;;;;2.78;1.13;;;26.10;81.20;;;;;;5053913;28;20045;-67
2023/06/27 08:03:20;;;;;;;2.08;1.23;;;26.50;82.20;;;;;;5052578;28;20271;-66
2023/06/27 08:05:46;;;;;;;2.10;1.17;;;27.00;81.00;;;;;;5053055;28;20115;-66
2023/06/27 08:08:11;;;;;;;2.78;1.38;;;26.70;80.70;;;;;;5054005;28;20049;-66
2023/06/27 08:10:37;;;;;;;4.63;2.05;;;25.70;80.60;;;;;;5053605;28;20052;-66
2023/06/27 08:13:03;;;;;;;2.42;1.48;;;25.00;82.00;;;;;;5053739;28;20084;-65
2023/06/27 08:15:28;;;;;;;1.88;1.10;;;24.40;82.10;;;;;;5053836;28;20124;-66
2023/06/27 08:17:54;;;;;;;4.60;1.85;;;24.50;82.80;;;;;;5052648;28;20475;-65
2023/06/27 08:20:20;;;;;;;4.72;1.58;;;25.00;83.40;;;;;;5053953;28;20344;-65
2023/06/27 08:22:45;;;;;;;7.40;1.30;;;25.40;83.00;;;;;;5052364;28;20041;-65
2023/06/27 08:25:11;;;;;;;2.00;0.80;;;25.70;82.00;;;;;;5053358;28;20040;-66
2023/06/27 08:27:37;;;;;;;1.98;1.25;;;25.60;81.20;;;;;;5052242;28;20048;-65
2023/06/27 08:30:03;;;;;;;3.83;1.23;;;25.60;81.60;;;;;;5052329;28;20056;-65
2023/06/27 08:32:29;;;;;;;3.58;1.77;;;26.20;81.40;;;;;;5053735;28;20041;-67
2023/06/27 08:34:54;;;;;;;3.08;1.30;;;26.80;81.60;;;;;;5053537;28;20366;-66
2023/06/27 08:37:21;;;;;;;3.13;1.30;;;26.90;79.20;;;;;;5053244;28;20060;-66
2023/06/27 08:39:51;;;;;;;3.95;1.30;;;26.80;79.60;;;;;;5053221;28;20044;-67
2023/06/27 08:42:18;;;;;;;3.53;1.60;;;25.90;78.80;;;;;;5053283;28;20084;-65
2023/06/27 08:44:43;;;;;;;3.08;1.33;;;24.90;80.10;;;;;;5053386;28;20041;-65
2023/06/27 08:47:11;;;;;;;2.58;1.00;;;24.20;81.10;;;;;;5052338;28;20343;-67
2023/06/27 08:49:39;;;;;;;4.03;1.13;;;23.70;82.10;;;;;;5052861;28;20063;-68
2023/06/27 08:52:07;;;;;;;2.28;1.10;;;23.50;82.40;;;;;;5053443;28;20048;-67
2023/06/27 08:54:52;;;;;;;2.72;1.17;;;23.40;82.40;;;;;;5051984;28;20041;-66
2023/06/27 08:57:19;;;;;;;4.15;1.30;;;23.30;83.50;;;;;;5052931;28;20053;-66
2023/06/27 08:59:47;;;;;;;3.45;1.67;;;23.60;83.40;;;;;;5053068;28;20045;-66
2023/06/27 09:02:13;;;;;;;3.13;1.48;;;23.40;83.80;;;;;;5052902;28;20053;-66
2023/06/27 09:04:41;;;;;;;3.13;1.30;;;23.00;83.60;;;;;;5052829;28;20403;-66
2023/06/27 09:07:06;;;;;;;3.53;1.50;;;22.60;84.10;;;;;;5053014;28;20051;-66
2023/06/27 09:09:34;;;;;;;4.97;1.40;;;22.70;84.20;;;;;;5052729;28;20041;-66
2023/06/27 09:12:02;;;;;;;3.67;1.30;;;22.70;83.70;;;;;;5052524;28;20044;-66
2023/06/27 09:14:27;;;;;;;2.20;1.23;;;23.10;83.30;;;;;;5052827;28;20049;-66
2023/06/27 09:16:53;;;;;;;3.10;1.30;;;23.80;82.70;;;;;;5052536;28;20455;-66
2023/06/27 09:19:20;;;;;;;2.75;1.20;;;24.30;81.80;;;;;;5052770;28;20052;-67
2023/06/27 09:21:48;;;;;;;1.65;1.40;;;24.90;81.30;;;;;;5052955;28;20120;-68
2023/06/27 09:24:20;;;;;;;2.22;1.10;;;25.60;81.60;;;;;;5051614;28;20045;-67
2023/06/27 09:26:45;;;;;;;3.67;1.15;;;26.00;80.90;;;;;;5052642;28;20052;-67
2023/06/27 09:29:11;;;;;;;2.75;1.10;;;25.60;80.40;;;;;;5052865;28;20213;-67
2023/06/27 09:31:37;;;;;;;2.10;1.30;;;24.90;79.90;;;;;;5051866;28;20052;-67
2023/06/27 09:34:04;;;;;;;3.55;1.35;;;25.30;80.40;;;;;;5050737;28;20092;-66
2023/06/27 09:36:31;;;;;;;6.28;1.70;;;25.70;80.50;;;;;;5052082;28;20045;-66
2023/06/27 09:39:00;;;;;;;8.60;1.55;;;25.80;80.40;;;;;;5052250;28;20037;-66
2023/06/27 09:41:44;;;;;;;1.75;1.17;;;25.70;80.00;;;;;;5052136;28;20049;-67
2023/06/27 09:44:15;;;;;;;3.63;2.10;;;25.60;79.10;;;;;;5034641;28;20076;-68
2023/06/27 09:46:45;;;;;;;2.83;1.23;;;25.40;80.00;;;;;;5052250;28;20068;-68
2023/06/27 09:49:11;;;;;;;2.30;1.20;;;25.50;80.20;;;;;;5052126;28;20118;-68
2023/06/27 09:51:37;;;;;;;7.57;1.33;;;25.20;79.20;;;;;;5051944;28;20074;-66
2023/06/27 09:54:04;;;;;;;2.28;0.90;;;25.50;81.00;;;;;;5051974;28;20041;-67
2023/06/27 09:56:31;;;;;;;2.22;0.98;;;25.40;80.20;;;;;;5051896;28;20067;-67
2023/06/27 09:59:09;;;;;;;3.63;1.15;;;25.30;80.60;;;;;;5051930;28;20041;-67
2023/06/27 10:01:39;;;;;;;4.15;1.75;;;25.30;80.10;;;;;;5051649;28;20045;-66
2023/06/27 10:04:06;;;;;;;4.10;1.52;;;25.60;81.00;;;;;;5034121;28;20045;-67
2023/06/27 10:06:33;;;;;;;1.55;1.20;;;25.60;79.90;;;;;;5051773;28;20064;-66
2023/06/27 10:08:59;;;;;;;3.42;1.52;;;25.60;79.40;;;;;;5051775;28;20049;-67
2023/06/27 10:11:26;;;;;;;2.17;1.10;;;25.70;79.90;;;;;;5054582;28;20084;-67
2023/06/27 10:13:52;;;;;;;2.60;1.35;;;25.30;79.60;;;;;;5056129;28;20064;-66
2023/06/27 10:16:18;;;;;;;3.08;1.02;;;25.00;78.80;;;;;;5055873;28;20045;-67
2023/06/27 10:18:44;;;;;;;4.20;1.40;;;24.70;80.40;;;;;;5055426;28;20056;-65
2023/06/27 10:21:10;;;;;;;4.28;2.08;;;24.40;80.50;;;;;;5038360;28;20387;-65
2023/06/27 10:23:39;;;;;;;2.65;0.90;;;24.40;81.60;;;;;;5055356;28;20051;-67
2023/06/27 10:26:07;;;;;;;2.08;1.00;;;24.70;81.30;;;;;;5055447;28;20485;-65
2023/06/27 10:28:33;;;;;;;4.40;1.38;;;24.70;80.10;;;;;;5055068;28;20501;-66
2023/06/27 10:30:59;;;;;;;7.07;1.27;;;24.70;79.60;;;;;;5055413;28;20045;-66
2023/06/27 10:33:31;;;;;;;3.65;1.17;;;24.80;79.70;;;;;;5055077;28;20045;-66
2023/06/27 10:36:05;;;;;;;2.67;1.02;;;24.90;80.10;;;;;;5055648;28;20149;-65
2023/06/27 10:38:35;;;;;;;4.97;1.88;;;24.80;80.00;;;;;;5055133;28;20106;-66
2023/06/27 10:41:09;;;;;;;3.13;1.40;;;24.60;80.70;;;;;;5054934;28;20052;-66
2023/06/27 10:43:49;;;;;;;6.85;1.98;;;24.80;81.70;;;;;;5054080;28;20532;-65
2023/06/27 10:46:20;;;;;;;5.25;1.20;;;25.10;79.90;;;;;;5054936;28;20107;-65
2023/06/27 10:48:48;;;;;;;2.47;1.20;;;25.40;79.80;;;;;;5054502;28;20049;-65
2023/06/27 10:51:16;;;;;;;5.20;1.10;;;25.60;80.30;;;;;;5054849;28;20476;-65
2023/06/27 10:53:44;;;;;;;3.15;1.17;;;25.70;79.40;;;;;;5054146;28;20088;-66
2023/06/27 10:56:17;;;;;;;3.17;1.15;;;26.00;79.90;;;;;;5055355;28;20071;-65
2023/06/27 10:58:46;;;;;;;3.55;1.27;;;26.20;77.50;;;;;;5054883;28;20072;-66
2023/06/27 11:01:12;;;;;;;3.90;1.20;;;26.10;78.90;;;;;;5055117;28;20049;-67
2023/06/27 11:03:41;;;;;;;3.00;1.52;;;26.30;78.70;;;;;;5054835;28;20116;-66
2023/06/27 11:06:06;;;;;;;4.75;1.40;;;26.10;78.80;;;;;;5054900;28;20083;-66
2023/06/27 11:08:33;;;;;;;2.95;1.42;;;26.20;78.70;;;;;;5036866;28;20049;-67
2023/06/27 11:11:02;;;;;;;3.90;1.40;;;26.10;78.60;;;;;;5054571;28;20053;-66
2023/06/27 11:13:29;;;;;;;4.43;1.75;;;25.90;77.90;;;;;;5053709;28;20057;-65
2023/06/27 11:15:55;;;;;;;2.30;1.00;;;25.50;78.10;;;;;;5054159;28;20487;-65
2023/06/27 11:18:26;;;;;;;1.25;1.00;;;25.60;78.20;;;;;;5053843;28;20057;-66
2023/06/27 11:20:52;;;;;;;2.30;1.60;;;25.40;76.40;;;;;;5055397;28;20049;-66
2023/06/27 11:23:22;;;;;;;2.75;1.25;;;25.20;77.30;;;;;;5052539;28;20052;-66
2023/06/27 11:25:48;;;;;;;3.65;1.40;;;25.20;78.40;;;;;;5054789;28;20037;-65
2023/06/27 11:28:21;;;;;;;4.38;1.20;;;25.20;78.90;;;;;;5053688;28;20037;-65
2023/06/27 11:30:47;;;;;;;;;;;25.10;78.20;;;;;;5055504;28;20044;-67
2023/06/27 11:33:16;;;;;;;2.30;1.27;;;25.00;78.30;;;;;;5054004;28;19924;-65
2023/06/27 11:35:43;;;;;;;3.83;1.23;;;24.90;79.30;;;;;;5054535;28;20397;-64
2023/06/27 11:38:10;;;;;;;2.90;1.10;;;24.70;78.20;;;;;;5053476;28;20048;-63
2023/06/27 11:40:36;;;;;;;1.88;1.23;;;24.90;79.10;;;;;;5053478;28;20449;-64
2023/06/27 11:43:07;;;;;;;3.67;1.15;;;24.90;79.50;;;;;;5054360;28;20053;-63
2023/06/27 11:45:34;;;;;;;2.85;1.20;;;24.70;80.50;;;;;;5053360;28;20463;-64
2023/06/27 11:48:00;;;;;;;4.28;1.23;;;24.50;79.90;;;;;;5053682;28;20044;-64
2023/06/27 11:50:27;;;;;;;3.33;1.55;;;24.20;79.50;;;;;;5054248;28;20124;-64
2023/06/27 11:52:56;;;;;;;2.42;1.20;;;24.10;79.40;;;;;;5053847;28;20454;-64
2023/06/27 11:55:23;;;;;;;1.70;1.25;;;24.20;80.40;;;;;;5053559;28;20523;-64
2023/06/27 11:57:53;;;;;;;2.00;1.33;;;24.20;80.30;;;;;;5054153;28;20048;-63
2023/06/27 12:00:23;;;;;;;2.88;1.30;;;24.10;79.60;;;;;;5053435;28;20110;-66
2023/06/27 12:02:54;;;;;;;1.58;1.00;;;24.30;80.90;;;;;;5052807;28;20051;-66
2023/06/27 12:05:22;;;;;;;2.65;1.15;;;24.30;79.90;;;;;;5053952;28;20036;-65
2023/06/27 12:08:07;;;;;;;2.97;1.25;;;24.30;80.20;;;;;;5053583;28;20064;-64
2023/06/27 12:10:51;;;;;;;2.42;1.38;;;24.40;80.20;;;;;;5053937;28;20045;-66
2023/06/27 12:13:16;;;;;;;1.67;1.20;;;24.20;79.90;;;;;;5054061;28;20049;-66
2023/06/27 12:15:46;;;;;;;7.57;1.90;;;24.20;80.60;;;;;;5054172;28;20087;-65
2023/06/27 12:18:24;;;;;;;2.10;1.10;;;24.20;81.00;;;;;;5053758;28;20408;-65
2023/06/27 12:20:51;;;;;;;2.30;1.52;;;24.20;81.60;;;;;;5053609;28;20057;-65
2023/06/27 12:23:17;;;;;;;3.25;1.30;;;24.00;81.50;;;;;;5053658;28;20060;-65
2023/06/27 12:25:44;;;;;;;3.20;1.27;;;24.00;81.30;;;;;;5053789;28;20045;-65
2023/06/27 12:28:10;;;;;;;3.97;1.30;;;23.80;81.40;;;;;;5053539;28;20052;-66
2023/06/27 12:30:36;;;;;;;6.95;1.90;;;23.60;81.10;;;;;;5053574;28;20049;-64
2023/06/27 12:33:02;;;;;;;2.65;1.80;;;23.50;81.90;;;;;;5053024;28;20195;-64
2023/06/27 12:35:29;;;;;;;3.20;1.38;;;23.60;82.20;;;;;;5053617;28;20367;-65
2023/06/27 12:37:55;;;;;;;2.45;1.25;;;23.60;82.30;;;;;;5053353;28;20049;-65
2023/06/27 12:40:22;;;;;;;2.47;1.55;;;23.70;81.60;;;;;;5053488;28;20055;-65
2023/06/27 12:42:50;;;;;;;3.63;1.75;;;23.60;81.60;;;;;;5053314;28;20045;-66
2023/06/27 12:45:16;;;;;;;1.55;1.30;;;23.40;81.40;;;;;;5053812;28;20086;-67
2023/06/27 12:47:43;;;;;;;3.00;1.08;;;23.60;81.40;;;;;;5053178;28;20424;-66